Time;durP1;ratioP1;P1;durP2;ratioP2;P2;SDS_P1;SDS_P2;PMS_P1;PMS_P2;Temp;Humidity;BMP_temperature;BMP_pressure;BME280_temperature;BME280_humidity;BME280_pressure;Samples;Min_cycle;Max_cycle;Signal;HPM_P1;HPM_P2
2023/10/25 00:00:19;;;;;;;55.07;33.17;;;9.40;99.90;;;;;;5113286;28;20567;-72
2023/10/25 00:02:46;;;;;;;54.07;33.53;;;9.50;99.90;;;;;;5112769;28;20249;-72
2023/10/25 00:05:13;;;;;;;48.37;31.40;;;9.40;99.90;;;;;;5113213;28;20225;-73
2023/10/25 00:07:39;;;;;;;52.23;32.40;;;9.40;99.90;;;;;;5112765;28;20736;-73
2023/10/25 00:10:07;;;;;;;52.33;32.70;;;9.40;99.90;;;;;;5113084;28;20257;-73
2023/10/25 00:12:33;;;;;;;55.23;33.93;;;9.40;99.90;;;;;;5112810;28;20249;-71
2023/10/25 00:15:01;;;;;;;55.10;32.13;;;9.40;99.90;;;;;;5112850;28;20255;-72
2023/10/25 00:17:28;;;;;;;54.60;34.13;;;9.40;99.90;;;;;;5113013;28;20245;-72
2023/10/25 00:19:55;;;;;;;54.57;33.40;;;9.40;99.90;;;;;;5112891;28;20271;-73
2023/10/25 00:22:21;;;;;;;58.60;34.63;;;9.40;99.90;;;;;;5112868;28;20252;-73
2023/10/25 00:24:48;;;;;;;52.00;31.63;;;9.30;99.90;;;;;;5112732;28;20203;-72
2023/10/25 00:27:14;;;;;;;55.33;32.83;;;9.30;99.90;;;;;;5113059;28;20204;-72
2023/10/25 00:29:41;;;;;;;53.33;31.73;;;9.20;99.90;;;;;;5112984;28;20203;-72
2023/10/25 00:32:14;;;;;;;55.87;31.93;;;9.10;99.90;;;;;;5112777;28;20196;-72
2023/10/25 00:34:41;;;;;;;62.63;34.67;;;8.90;99.90;;;;;;5112179;28;20752;-72
2023/10/25 00:37:07;;;;;;;59.13;33.83;;;8.90;99.90;;;;;;5112700;28;20200;-72
2023/10/25 00:39:34;;;;;;;57.00;32.80;;;8.90;99.90;;;;;;5112640;28;20226;-72
2023/10/25 00:42:01;;;;;;;56.20;33.27;;;8.90;99.90;;;;;;5112902;28;20199;-72
2023/10/25 00:44:27;;;;;;;56.40;33.27;;;8.80;99.90;;;;;;5112787;28;20195;-72
2023/10/25 00:46:54;;;;;;;59.00;33.23;;;8.70;99.90;;;;;;5112605;28;20651;-72
2023/10/25 00:49:23;;;;;;;58.30;33.37;;;8.70;99.90;;;;;;5112616;28;20196;-72
2023/10/25 00:51:50;;;;;;;63.50;36.10;;;8.70;99.90;;;;;;5112537;28;20217;-72
2023/10/25 00:54:17;;;;;;;61.17;35.33;;;8.80;99.90;;;;;;5112487;28;20602;-72
2023/10/25 00:56:43;;;;;;;60.43;34.17;;;8.80;99.90;;;;;;5112440;28;20224;-72
2023/10/25 00:59:12;;;;;;;60.87;33.70;;;8.90;99.90;;;;;;5112675;28;20195;-72
2023/10/25 01:01:41;;;;;;;56.37;32.57;;;8.80;99.90;;;;;;5112364;28;20642;-72
2023/10/25 01:04:08;;;;;;;59.63;32.77;;;8.80;99.90;;;;;;5112558;28;20264;-72
2023/10/25 01:06:36;;;;;;;64.77;34.10;;;8.80;99.90;;;;;;5112328;28;20647;-72
2023/10/25 01:09:03;;;;;;;65.07;35.87;;;8.90;99.90;;;;;;5112564;28;20249;-72
2023/10/25 01:11:30;;;;;;;61.40;34.43;;;9.00;99.90;;;;;;5112539;28;20202;-73
2023/10/25 01:13:57;;;;;;;64.37;35.83;;;9.00;99.90;;;;;;5112591;28;20681;-73
2023/10/25 01:16:23;;;;;;;61.93;33.77;;;9.00;99.90;;;;;;5115954;27;20280;-72
2023/10/25 01:18:50;;;;;;;63.63;36.27;;;9.10;99.90;;;;;;5115889;28;20195;-72
2023/10/25 01:21:17;;;;;;;63.37;35.00;;;9.10;99.90;;;;;;5115774;28;20260;-72
2023/10/25 01:23:45;;;;;;;63.80;34.67;;;9.10;99.90;;;;;;5116138;28;20195;-71
2023/10/25 01:26:11;;;;;;;62.80;34.57;;;9.10;99.90;;;;;;5116095;28;20196;-71
2023/10/25 01:28:38;;;;;;;62.30;34.60;;;9.10;99.90;;;;;;5116084;28;20196;-72
2023/10/25 01:31:05;;;;;;;66.07;36.17;;;9.00;99.90;;;;;;5115887;28;20203;-72
2023/10/25 01:33:32;;;;;;;66.03;35.77;;;9.00;99.90;;;;;;5115664;28;20546;-72
2023/10/25 01:35:58;;;;;;;61.97;35.97;;;9.00;99.90;;;;;;5115684;27;20235;-72
2023/10/25 01:38:25;;;;;;;68.40;36.47;;;9.00;99.90;;;;;;5115677;27;20616;-72
2023/10/25 01:40:53;;;;;;;67.87;36.37;;;9.00;99.90;;;;;;5115798;28;20253;-72
2023/10/25 01:43:21;;;;;;;64.20;35.37;;;9.00;99.90;;;;;;5115650;28;20196;-72
2023/10/25 01:45:47;;;;;;;63.77;35.30;;;9.00;99.90;;;;;;5115611;28;20290;-72
2023/10/25 01:48:14;;;;;;;64.50;35.10;;;9.00;99.90;;;;;;5115481;28;20195;-72
2023/10/25 01:50:41;;;;;;;64.10;34.50;;;9.10;99.90;;;;;;5115706;28;20200;-72
2023/10/25 01:53:07;;;;;;;63.70;34.50;;;9.10;99.90;;;;;;5115543;28;20209;-72
2023/10/25 01:55:34;;;;;;;65.43;35.07;;;9.10;99.90;;;;;;5115460;28;20223;-72
2023/10/25 01:58:02;;;;;;;63.90;32.67;;;9.10;99.90;;;;;;5115477;28;20252;-72
2023/10/25 02:00:28;;;;;;;60.33;33.40;;;9.10;99.90;;;;;;5115302;28;20199;-72
2023/10/25 02:02:55;;;;;;;62.20;35.30;;;9.10;99.90;;;;;;5115207;28;20654;-71
2023/10/25 02:05:22;;;;;;;65.13;35.03;;;9.10;99.90;;;;;;5115425;28;20206;-72
2023/10/25 02:07:48;;;;;;;57.70;34.10;;;9.20;99.90;;;;;;5115137;28;20200;-72
2023/10/25 02:10:15;;;;;;;61.97;34.53;;;9.20;99.90;;;;;;5114982;28;20727;-71
2023/10/25 02:12:42;;;;;;;64.37;33.90;;;9.20;99.90;;;;;;5114923;28;20206;-72
2023/10/25 02:15:10;;;;;;;64.67;36.00;;;9.20;99.90;;;;;;5114803;27;20225;-71
2023/10/25 02:17:37;;;;;;;64.90;33.90;;;9.30;99.90;;;;;;5114763;28;20253;-71
2023/10/25 02:20:04;;;;;;;62.27;33.87;;;9.30;99.90;;;;;;5114933;28;20246;-71
2023/10/25 02:22:31;;;;;;;60.73;33.10;;;9.30;99.90;;;;;;5114810;28;20199;-72
2023/10/25 02:24:58;;;;;;;63.20;34.70;;;9.30;99.90;;;;;;5114233;27;20199;-72
2023/10/25 02:27:24;;;;;;;64.83;35.97;;;9.30;99.90;;;;;;5114650;28;20203;-71
2023/10/25 02:29:51;;;;;;;68.43;34.97;;;9.30;99.90;;;;;;5114399;28;20191;-72
2023/10/25 02:32:19;;;;;;;66.20;35.53;;;9.30;99.90;;;;;;5114663;28;20199;-71
2023/10/25 02:34:46;;;;;;;58.60;33.47;;;9.30;99.90;;;;;;5114184;28;20231;-72
2023/10/25 02:37:13;;;;;;;64.10;34.30;;;9.30;99.90;;;;;;5114514;28;20227;-71
2023/10/25 02:39:42;;;;;;;67.67;36.67;;;9.30;99.90;;;;;;5114441;28;20203;-71
2023/10/25 02:42:08;;;;;;;62.20;33.97;;;9.30;99.90;;;;;;5114253;28;20199;-71
2023/10/25 02:44:35;;;;;;;65.07;34.97;;;9.30;99.90;;;;;;5114161;28;20253;-71
2023/10/25 02:47:02;;;;;;;62.97;33.20;;;9.30;99.90;;;;;;5114421;28;20248;-71
2023/10/25 02:49:29;;;;;;;62.77;35.33;;;9.30;99.90;;;;;;5114168;28;20659;-71
2023/10/25 02:51:56;;;;;;;64.90;35.23;;;9.30;99.90;;;;;;5114282;28;20196;-71
2023/10/25 02:54:23;;;;;;;63.43;34.63;;;9.30;99.90;;;;;;5114111;28;20606;-71
2023/10/25 02:56:49;;;;;;;59.73;34.13;;;9.30;99.90;;;;;;5113999;28;20227;-71
2023/10/25 02:59:16;;;;;;;64.97;34.37;;;9.30;99.90;;;;;;5113973;28;20191;-72
2023/10/25 03:01:43;;;;;;;63.07;34.47;;;9.20;99.90;;;;;;5114088;28;20199;-71
2023/10/25 03:04:09;;;;;;;67.47;35.67;;;9.00;99.90;;;;;;5113831;28;20231;-71
2023/10/25 03:06:37;;;;;;;67.40;34.70;;;9.00;99.90;;;;;;5113864;28;20256;-72
2023/10/25 03:09:04;;;;;;;71.10;35.73;;;8.90;99.90;;;;;;5113783;27;20743;-71
2023/10/25 03:11:31;;;;;;;68.23;34.87;;;8.90;99.90;;;;;;5113666;28;20215;-71
2023/10/25 03:13:58;;;;;;;71.40;35.57;;;8.80;99.90;;;;;;5113938;28;20199;-71
2023/10/25 03:16:24;;;;;;;72.03;36.23;;;8.80;99.90;;;;;;5113952;28;20224;-72
2023/10/25 03:18:51;;;;;;;67.87;34.47;;;8.70;99.90;;;;;;5113746;28;20225;-71
2023/10/25 03:21:18;;;;;;;69.47;35.07;;;8.60;99.90;;;;;;5113700;28;20203;-71
2023/10/25 03:23:45;;;;;;;63.37;34.17;;;8.50;99.90;;;;;;5113638;28;20323;-71
2023/10/25 03:26:13;;;;;;;65.20;33.50;;;8.30;99.90;;;;;;5113531;28;20200;-71
2023/10/25 03:28:39;;;;;;;71.47;34.73;;;8.20;99.90;;;;;;5113694;28;20245;-71
2023/10/25 03:31:07;;;;;;;64.83;34.77;;;8.20;99.90;;;;;;5113670;28;20188;-71
2023/10/25 03:33:33;;;;;;;72.37;35.33;;;8.10;99.90;;;;;;5113348;28;20244;-71
2023/10/25 03:36:01;;;;;;;72.60;34.53;;;8.00;99.90;;;;;;5113172;28;20231;-72
2023/10/25 03:38:27;;;;;;;72.17;36.17;;;7.90;99.90;;;;;;5112704;28;20276;-72
2023/10/25 03:41:02;;;;;;;70.03;35.90;;;7.90;99.90;;;;;;5113588;28;20196;-72
2023/10/25 03:43:29;;;;;;;75.10;35.93;;;7.80;99.90;;;;;;5113335;28;20286;-72
2023/10/25 03:45:55;;;;;;;82.20;37.07;;;7.80;99.90;;;;;;5113344;28;20204;-72
2023/10/25 03:48:22;;;;;;;77.30;36.10;;;7.90;99.90;;;;;;5113199;28;20199;-72
2023/10/25 03:50:49;;;;;;;63.73;33.17;;;7.90;99.90;;;;;;5113182;28;20280;-72
2023/10/25 03:53:15;;;;;;;85.10;38.33;;;7.90;99.90;;;;;;5112978;28;20674;-72
2023/10/25 03:55:42;;;;;;;76.83;36.40;;;7.90;99.90;;;;;;5113156;28;20192;-72
2023/10/25 03:58:10;;;;;;;71.50;36.23;;;7.90;99.90;;;;;;5113319;28;20215;-72
2023/10/25 04:00:37;;;;;;;79.50;36.97;;;7.90;99.90;;;;;;5112954;28;20250;-72
2023/10/25 04:03:03;;;;;;;83.93;37.63;;;7.80;99.90;;;;;;5113070;28;20200;-71
2023/10/25 04:05:30;;;;;;;77.93;35.77;;;7.80;99.90;;;;;;5112996;28;20257;-71
2023/10/25 04:07:57;;;;;;;75.33;35.10;;;7.80;99.90;;;;;;5112909;28;20203;-71
2023/10/25 04:10:23;;;;;;;82.23;37.53;;;7.80;99.90;;;;;;5113106;28;20199;-72
2023/10/25 04:12:50;;;;;;;83.90;36.50;;;7.80;99.90;;;;;;5112922;28;20196;-71
2023/10/25 04:15:18;;;;;;;89.70;38.37;;;7.90;99.90;;;;;;5112785;28;20626;-72
2023/10/25 04:17:45;;;;;;;83.97;38.37;;;8.00;99.90;;;;;;5112658;28;20223;-71
2023/10/25 04:20:12;;;;;;;90.30;39.53;;;8.10;99.90;;;;;;5112639;28;20195;-73
2023/10/25 04:22:39;;;;;;;88.90;38.60;;;8.20;99.90;;;;;;5112969;28;20202;-71
2023/10/25 04:25:06;;;;;;;95.20;40.83;;;8.20;99.90;;;;;;5112885;28;20200;-71
2023/10/25 04:27:33;;;;;;;92.07;38.67;;;8.30;99.90;;;;;;5113007;28;20202;-71
2023/10/25 04:30:00;;;;;;;90.10;39.37;;;8.40;99.90;;;;;;5112883;28;20203;-71
2023/10/25 04:32:28;;;;;;;89.90;36.93;;;8.40;99.90;;;;;;5112921;28;20191;-72
2023/10/25 04:34:54;;;;;;;104.13;38.90;;;8.50;99.90;;;;;;5112504;28;20231;-72
2023/10/25 04:37:21;;;;;;;86.93;39.23;;;8.50;99.90;;;;;;5112563;28;20275;-72
2023/10/25 04:39:48;;;;;;;181.50;42.20;;;8.50;99.90;;;;;;5112910;28;20203;-72
2023/10/25 04:42:14;;;;;;;93.87;38.40;;;8.60;99.90;;;;;;5112828;28;20261;-72
2023/10/25 04:44:41;;;;;;;182.53;45.17;;;8.60;99.90;;;;;;5112830;28;20199;-72
2023/10/25 04:47:08;;;;;;;101.07;38.57;;;8.60;99.90;;;;;;5112691;28;20297;-72
2023/10/25 04:49:37;;;;;;;126.20;46.93;;;8.60;99.90;;;;;;5115701;28;20717;-72
2023/10/25 04:52:04;;;;;;;95.23;38.77;;;8.60;99.90;;;;;;5116762;28;20248;-72
2023/10/25 04:54:31;;;;;;;84.33;37.87;;;8.60;99.90;;;;;;5116487;28;20624;-72
2023/10/25 04:56:58;;;;;;;76.30;34.63;;;8.60;99.90;;;;;;5116398;28;20691;-72
2023/10/25 04:59:24;;;;;;;398.53;71.50;;;8.60;99.90;;;;;;5116317;28;20601;-71
2023/10/25 05:01:51;;;;;;;79.63;35.80;;;8.70;99.90;;;;;;5116330;28;20776;-71
2023/10/25 05:04:18;;;;;;;71.87;33.60;;;8.60;99.90;;;;;;5116330;28;20245;-71
2023/10/25 05:06:46;;;;;;;67.67;32.90;;;8.60;99.90;;;;;;5116435;28;20199;-71
2023/10/25 05:09:13;;;;;;;80.50;35.10;;;8.60;99.90;;;;;;5116360;28;20196;-71
2023/10/25 05:11:43;;;;;;;82.33;33.60;;;8.60;99.90;;;;;;5116244;28;20204;-71
2023/10/25 05:14:10;;;;;;;172.90;51.87;;;8.60;99.90;;;;;;5116154;28;20264;-71
2023/10/25 05:16:38;;;;;;;104.80;34.67;;;8.50;99.90;;;;;;5115969;28;20220;-71
2023/10/25 05:19:05;;;;;;;80.90;34.20;;;8.50;99.90;;;;;;5115989;28;20872;-72
2023/10/25 05:21:37;;;;;;;205.83;44.77;;;8.50;99.90;;;;;;5116160;28;20194;-72
2023/10/25 05:24:08;;;;;;;215.10;43.93;;;8.50;99.90;;;;;;5115982;28;20200;-71
2023/10/25 05:26:35;;;;;;;72.70;33.83;;;8.50;99.90;;;;;;5116188;28;20258;-71
2023/10/25 05:29:03;;;;;;;68.63;30.67;;;8.50;99.90;;;;;;5115858;27;20653;-72
2023/10/25 05:31:34;;;;;;;82.07;34.20;;;8.40;99.90;;;;;;5115747;28;20206;-72
2023/10/25 05:34:01;;;;;;;73.33;31.03;;;8.30;99.90;;;;;;5115797;28;20303;-72
2023/10/25 05:36:28;;;;;;;72.73;31.67;;;8.30;99.90;;;;;;5115751;27;20219;-72
2023/10/25 05:38:55;;;;;;;72.43;31.03;;;8.40;99.90;;;;;;5115637;28;20199;-72
2023/10/25 05:41:27;;;;;;;77.67;32.10;;;8.30;99.90;;;;;;5115469;28;20658;-72
2023/10/25 05:44:06;;;;;;;67.67;29.73;;;8.30;99.90;;;;;;5115549;27;20546;-71
2023/10/25 05:46:33;;;;;;;68.73;31.77;;;8.30;99.90;;;;;;5115305;28;20658;-72
2023/10/25 05:49:00;;;;;;;77.53;31.30;;;8.30;99.90;;;;;;5115330;28;20228;-72
2023/10/25 05:51:27;;;;;;;64.37;30.37;;;8.30;99.90;;;;;;5115423;28;20608;-71
2023/10/25 05:53:54;;;;;;;66.63;30.47;;;8.30;99.90;;;;;;5115149;28;20199;-71
2023/10/25 05:56:26;;;;;;;65.43;31.70;;;8.30;99.90;;;;;;5115591;28;20200;-72
2023/10/25 05:58:53;;;;;;;71.07;30.20;;;8.30;99.90;;;;;;5115117;28;20208;-73
2023/10/25 06:01:23;;;;;;;71.10;30.93;;;8.30;99.90;;;;;;5114511;28;20543;-72
2023/10/25 06:03:52;;;;;;;63.93;29.23;;;8.30;99.90;;;;;;5115298;28;20199;-72
2023/10/25 06:06:20;;;;;;;59.33;27.73;;;8.30;99.90;;;;;;5115107;28;20199;-72
2023/10/25 06:08:48;;;;;;;66.07;29.77;;;8.30;99.90;;;;;;5115401;28;20203;-71
2023/10/25 06:11:15;;;;;;;67.43;29.30;;;8.20;99.90;;;;;;5115209;28;20237;-71
2023/10/25 06:13:44;;;;;;;67.20;28.50;;;8.30;99.90;;;;;;5115146;28;20196;-71
2023/10/25 06:16:10;;;;;;;69.10;31.00;;;8.30;99.90;;;;;;5114981;28;20286;-73
2023/10/25 06:18:37;;;;;;;60.03;29.20;;;8.40;99.90;;;;;;5114906;28;20272;-71
2023/10/25 06:21:04;;;;;;;60.10;29.20;;;8.40;99.90;;;;;;5114939;28;20603;-69
2023/10/25 06:23:30;;;;;;;64.03;30.27;;;8.50;99.90;;;;;;5115118;28;20199;-71
2023/10/25 06:25:57;;;;;;;57.67;29.10;;;8.60;99.90;;;;;;5114900;28;20248;-72
2023/10/25 06:28:24;;;;;;;56.80;28.80;;;8.70;99.90;;;;;;5114533;28;20659;-72
2023/10/25 06:30:52;;;;;;;57.70;26.73;;;8.70;99.90;;;;;;5114794;28;20207;-71
2023/10/25 06:33:18;;;;;;;63.67;28.10;;;8.70;99.90;;;;;;5114641;28;20192;-72
2023/10/25 06:35:45;;;;;;;56.53;28.13;;;8.70;99.90;;;;;;5114595;28;20203;-73
2023/10/25 06:38:13;;;;;;;59.93;28.90;;;8.60;99.90;;;;;;5114616;28;20292;-73
2023/10/25 06:40:40;;;;;;;59.23;30.07;;;8.70;99.90;;;;;;5114600;28;20196;-73
2023/10/25 06:43:07;;;;;;;50.13;27.40;;;8.80;99.90;;;;;;5114376;28;20203;-73
2023/10/25 06:45:35;;;;;;;49.50;27.03;;;8.70;99.90;;;;;;5114363;28;20199;-74
2023/10/25 06:48:03;;;;;;;54.83;29.50;;;8.80;99.90;;;;;;5116708;28;20202;-74
2023/10/25 06:50:31;;;;;;;43.97;26.60;;;9.00;99.90;;;;;;5114252;28;20209;-74
2023/10/25 06:52:58;;;;;;;44.07;24.73;;;8.90;99.90;;;;;;5114014;28;20616;-74
2023/10/25 06:55:25;;;;;;;41.57;25.23;;;8.80;99.90;;;;;;5114160;28;20673;-75
2023/10/25 06:57:52;;;;;;;44.77;25.13;;;8.60;99.90;;;;;;5114155;28;20220;-74
2023/10/25 07:00:20;;;;;;;43.00;24.43;;;8.70;99.90;;;;;;5114120;28;20202;-75
2023/10/25 07:02:51;;;;;;;36.60;22.67;;;8.60;99.90;;;;;;5111348;28;20203;-75
2023/10/25 07:05:21;;;;;;;42.40;27.03;;;8.60;99.90;;;;;;5110998;28;20191;-76
2023/10/25 07:07:50;;;;;;;40.30;24.07;;;8.60;99.90;;;;;;5111054;28;20195;-76
2023/10/25 07:10:17;;;;;;;36.40;22.90;;;8.70;99.90;;;;;;5111094;28;20199;-76
2023/10/25 07:12:44;;;;;;;37.27;24.07;;;8.80;99.90;;;;;;5110740;28;20199;-75
2023/10/25 07:15:12;;;;;;;385.70;59.27;;;9.00;99.90;;;;;;5110626;28;20232;-76
2023/10/25 07:17:39;;;;;;;38.07;24.03;;;9.00;99.90;;;;;;5110256;28;21104;-76
2023/10/25 07:20:06;;;;;;;51.00;35.43;;;9.00;99.90;;;;;;5113972;28;20200;-75
2023/10/25 07:22:35;;;;;;;34.87;22.23;;;8.90;99.90;;;;;;5111799;28;20841;-74
2023/10/25 07:25:01;;;;;;;30.97;21.93;;;9.10;99.90;;;;;;5112724;28;20200;-75
2023/10/25 07:27:28;;;;;;;30.83;22.07;;;9.30;99.90;;;;;;5113587;28;20286;-75
2023/10/25 07:29:55;;;;;;;26.23;19.93;;;9.40;99.90;;;;;;5113481;28;20252;-75
2023/10/25 07:32:21;;;;;;;24.10;18.83;;;9.50;99.90;;;;;;5113723;28;20196;-75
2023/10/25 07:34:48;;;;;;;22.90;17.87;;;9.40;99.90;;;;;;5113420;28;20223;-75
2023/10/25 07:37:15;;;;;;;24.87;17.90;;;9.40;99.90;;;;;;5113245;28;20264;-75
2023/10/25 07:39:44;;;;;;;24.33;18.30;;;9.40;99.90;;;;;;5113425;28;20287;-75
2023/10/25 07:42:10;;;;;;;23.00;17.90;;;9.40;99.90;;;;;;5113237;28;20200;-75
2023/10/25 07:44:37;;;;;;;23.33;17.90;;;9.50;99.90;;;;;;5113618;28;20200;-75
2023/10/25 07:47:04;;;;;;;21.60;17.10;;;9.50;99.90;;;;;;5113563;28;20196;-74
2023/10/25 07:49:35;;;;;;;22.57;17.93;;;9.50;99.90;;;;;;5113418;28;20203;-75
2023/10/25 07:52:02;;;;;;;22.60;17.93;;;9.60;99.90;;;;;;5113373;28;20282;-74
2023/10/25 07:54:28;;;;;;;19.93;16.90;;;9.60;99.90;;;;;;5113339;28;20659;-75
2023/10/25 07:56:56;;;;;;;21.57;16.33;;;9.50;99.90;;;;;;5113087;28;20195;-75
2023/10/25 07:59:23;;;;;;;22.50;17.97;;;9.40;99.90;;;;;;5113447;28;20264;-74
2023/10/25 08:01:51;;;;;;;20.93;16.43;;;9.30;99.90;;;;;;5113461;28;20199;-75
2023/10/25 08:04:18;;;;;;;19.73;16.83;;;9.30;99.90;;;;;;5113218;28;20195;-74
2023/10/25 08:06:45;;;;;;;22.60;18.63;;;9.40;99.90;;;;;;5112974;28;20196;-74
2023/10/25 08:09:12;;;;;;;20.00;17.37;;;9.60;99.90;;;;;;5113095;28;20256;-75
2023/10/25 08:11:38;;;;;;;18.10;15.17;;;9.90;99.90;;;;;;5112960;28;20195;-74
2023/10/25 08:14:06;;;;;;;18.13;15.63;;;10.10;99.90;;;;;;5113291;28;20236;-74
2023/10/25 08:16:38;;;;;;;16.67;14.77;;;10.40;99.90;;;;;;5113233;28;20200;-75
2023/10/25 08:19:05;;;;;;;15.80;14.13;;;10.40;99.90;;;;;;5113025;28;20227;-75
2023/10/25 08:21:32;;;;;;;13.93;12.53;;;10.60;99.90;;;;;;5114176;28;20260;-75
2023/10/25 08:23:58;;;;;;;14.70;12.63;;;10.60;99.90;;;;;;5115317;28;20236;-75
2023/10/25 08:26:26;;;;;;;14.13;12.60;;;10.70;99.90;;;;;;5117503;28;20206;-76
2023/10/25 08:28:52;;;;;;;13.33;12.13;;;10.50;99.90;;;;;;5117059;28;20279;-76
2023/10/25 08:31:20;;;;;;;12.73;11.43;;;10.60;99.90;;;;;;5117161;28;20203;-76
2023/10/25 08:33:47;;;;;;;11.90;10.23;;;10.80;99.90;;;;;;5117030;28;20224;-76
2023/10/25 08:36:13;;;;;;;11.77;10.67;;;10.70;99.90;;;;;;5116945;28;20203;-75
2023/10/25 08:38:40;;;;;;;12.00;10.83;;;10.60;99.90;;;;;;5116804;28;20273;-74
2023/10/25 08:41:08;;;;;;;11.83;10.70;;;10.80;99.90;;;;;;5116979;28;20200;-73
2023/10/25 08:43:35;;;;;;;9.80;8.90;;;11.40;99.90;;;;;;5116941;28;20199;-74
2023/10/25 08:46:03;;;;;;;9.70;8.70;;;11.40;99.90;;;;;;5116763;28;20195;-74
2023/10/25 08:48:32;;;;;;;9.70;8.70;;;11.10;99.90;;;;;;5116830;28;20196;-74
2023/10/25 08:51:00;;;;;;;9.80;8.90;;;10.90;99.90;;;;;;5116507;28;20192;-74
2023/10/25 08:53:27;;;;;;;10.20;9.20;;;10.90;99.90;;;;;;5116823;28;20192;-74
2023/10/25 08:55:55;;;;;;;10.30;9.30;;;10.80;99.90;;;;;;5116522;27;20192;-74
2023/10/25 08:58:23;;;;;;;11.67;9.87;;;10.90;99.90;;;;;;5116593;28;20225;-74
2023/10/25 09:00:51;;;;;;;11.30;10.20;;;11.20;99.90;;;;;;5116607;28;20268;-73
2023/10/25 09:03:44;;;;;;;11.33;10.17;;;11.50;99.90;;;;;;5116478;28;20604;-73
2023/10/25 09:06:12;;;;;;;10.40;9.50;;;12.40;99.90;;;;;;5101310;28;20191;-74
2023/10/25 09:08:39;;;;;;;10.13;9.03;;;12.90;99.90;;;;;;5122841;27;20191;-75
2023/10/25 09:11:08;;;;;;;9.83;8.83;;;13.00;99.90;;;;;;5136937;27;20195;-74
2023/10/25 09:13:37;;;;;;;10.67;9.57;;;13.30;99.90;;;;;;5136810;27;20191;-74
2023/10/25 09:16:05;;;;;;;9.70;8.70;;;13.40;99.90;;;;;;5136305;27;20601;-74
2023/10/25 09:18:33;;;;;;;9.00;8.20;;;12.80;99.90;;;;;;5136430;27;20716;-74
2023/10/25 09:21:01;;;;;;;9.93;8.93;;;12.30;99.90;;;;;;5136548;27;20557;-74
2023/10/25 09:23:29;;;;;;;11.73;8.77;;;11.90;99.90;;;;;;5136477;27;20195;-74
2023/10/25 09:25:56;;;;;;;9.30;8.47;;;11.90;99.90;;;;;;5136528;27;20282;-75
2023/10/25 09:28:30;;;;;;;8.97;8.10;;;12.50;99.90;;;;;;5136308;27;20199;-74
2023/10/25 09:30:58;;;;;;;7.57;6.97;;;13.10;99.90;;;;;;5132844;27;20657;-75
2023/10/25 09:33:25;;;;;;;7.90;7.17;;;13.30;99.90;;;;;;5135783;27;20629;-75
2023/10/25 09:35:52;;;;;;;7.97;7.20;;;13.20;99.90;;;;;;5134562;27;20715;-74
2023/10/25 09:38:21;;;;;;;8.43;7.40;;;13.20;99.90;;;;;;5136141;27;20223;-74
2023/10/25 09:40:48;;;;;;;7.90;7.20;;;13.10;99.90;;;;;;5122085;27;20199;-75
2023/10/25 09:43:17;;;;;;;8.80;7.23;;;13.20;99.90;;;;;;5115350;28;20196;-75
2023/10/25 09:45:51;;;;;;;10.40;8.17;;;13.30;99.90;;;;;;5115673;27;20253;-74
2023/10/25 09:48:19;;;;;;;8.43;7.63;;;13.30;99.90;;;;;;5115562;28;20282;-74
2023/10/25 09:50:59;;;;;;;8.63;6.73;;;13.60;99.90;;;;;;5115520;28;20223;-74
2023/10/25 09:53:29;;;;;;;7.13;6.53;;;13.60;99.90;;;;;;5115438;28;20303;-74
2023/10/25 09:56:02;;;;;;;6.03;5.53;;;14.60;99.90;;;;;;5115276;28;20743;-74
2023/10/25 09:58:31;;;;;;;6.05;5.55;;;15.40;99.90;;;;;;5115352;28;20224;-75
2023/10/25 10:00:59;;;;;;;5.22;4.82;;;15.70;99.90;;;;;;5115151;28;20655;-75
2023/10/25 10:03:33;;;;;;;5.93;5.40;;;15.70;99.90;;;;;;5126458;27;20664;-75
2023/10/25 10:06:09;;;;;;;5.20;4.80;;;16.40;99.90;;;;;;5135552;27;20202;-75
2023/10/25 10:08:44;;;;;;;11.07;5.25;;;16.50;99.90;;;;;;5135023;27;20187;-75
2023/10/25 10:11:15;;;;;;;5.55;5.03;;;16.90;99.90;;;;;;5134922;27;20203;-78
2023/10/25 10:13:42;;;;;;;4.88;4.50;;;17.10;99.90;;;;;;5135205;27;20733;-75
2023/10/25 10:16:11;;;;;;;5.90;4.50;;;17.70;99.90;;;;;;5135427;27;20195;-75
2023/10/25 10:18:39;;;;;;;5.57;5.07;;;19.30;99.90;;;;;;5134907;27;20215;-75
2023/10/25 10:21:07;;;;;;;5.13;4.72;;;20.40;99.90;;;;;;5135472;27;20195;-75
2023/10/25 10:23:36;;;;;;;4.82;4.43;;;20.10;99.90;;;;;;5135502;27;20286;-74
2023/10/25 10:26:05;;;;;;;4.60;4.20;;;20.40;99.90;;;;;;5135311;27;20203;-75
2023/10/25 10:28:41;;;;;;;4.97;4.47;;;20.70;99.90;;;;;;5135462;27;20211;-75
2023/10/25 10:31:09;;;;;;;5.50;5.05;;;21.30;99.90;;;;;;5135223;27;20247;-75
2023/10/25 10:33:42;;;;;;;5.40;4.75;;;19.70;99.90;;;;;;5134976;27;20705;-75
2023/10/25 10:36:09;;;;;;;5.05;4.65;;;19.30;99.90;;;;;;5135184;27;20722;-75
2023/10/25 10:39:12;;;;;;;5.38;4.90;;;20.40;99.90;;;;;;5134949;27;20223;-75
2023/10/25 10:41:40;;;;;;;5.00;4.57;;;18.60;99.90;;;;;;5114302;28;20651;-76
2023/10/25 10:44:07;;;;;;;5.53;5.00;;;17.80;99.90;;;;;;5114674;28;20195;-74
2023/10/25 10:46:41;;;;;;;6.95;5.45;;;17.00;99.90;;;;;;5114054;28;20248;-75
2023/10/25 10:49:11;;;;;;;5.97;5.47;;;16.50;99.90;;;;;;5114447;28;20261;-74
2023/10/25 10:51:38;;;;;;;5.47;4.97;;;15.90;99.90;;;;;;5114148;28;20285;-74
2023/10/25 10:54:06;;;;;;;5.65;5.03;;;15.40;99.90;;;;;;5114023;28;20200;-74
2023/10/25 10:56:33;;;;;;;4.72;4.32;;;14.90;99.90;;;;;;5114151;28;20706;-74
2023/10/25 10:59:01;;;;;;;5.00;4.60;;;14.30;99.90;;;;;;5114143;28;20284;-75
2023/10/25 11:01:29;;;;;;;4.67;4.27;;;14.00;99.90;;;;;;5114006;28;20195;-74
2023/10/25 11:03:57;;;;;;;4.90;4.50;;;13.80;99.90;;;;;;5114032;28;20195;-75
2023/10/25 11:06:25;;;;;;;4.50;4.10;;;13.60;99.90;;;;;;5114009;28;20593;-76
2023/10/25 11:08:52;;;;;;;4.53;4.10;;;13.50;99.90;;;;;;5114250;28;20229;-76
2023/10/25 11:11:19;;;;;;;4.40;4.00;;;13.40;99.90;;;;;;5114221;28;20221;-76
2023/10/25 11:13:46;;;;;;;4.47;4.07;;;13.20;99.90;;;;;;5114163;28;20195;-76
2023/10/25 11:16:14;;;;;;;4.43;4.03;;;13.00;99.90;;;;;;5113900;28;20203;-74
2023/10/25 11:18:41;;;;;;;4.90;3.97;;;12.80;99.90;;;;;;5113817;28;20223;-75
2023/10/25 11:21:08;;;;;;;4.50;4.10;;;12.80;99.90;;;;;;5113659;28;20596;-75
2023/10/25 11:23:35;;;;;;;4.90;4.50;;;12.70;99.90;;;;;;5113938;28;20199;-75
2023/10/25 11:26:03;;;;;;;5.23;4.50;;;12.60;99.90;;;;;;5113704;28;20195;-74
2023/10/25 11:28:30;;;;;;;6.40;5.00;;;12.50;99.90;;;;;;5113689;28;20200;-75
2023/10/25 11:31:02;;;;;;;6.10;5.50;;;12.20;99.90;;;;;;5113591;28;20195;-74
2023/10/25 11:33:30;;;;;;;5.47;4.97;;;12.10;99.90;;;;;;5113256;28;20665;-75
2023/10/25 11:35:57;;;;;;;6.57;5.87;;;12.10;99.90;;;;;;5113912;28;20253;-75
2023/10/25 11:38:25;;;;;;;5.57;5.07;;;12.10;99.90;;;;;;5113350;28;20596;-75
2023/10/25 11:40:51;;;;;;;6.20;5.70;;;12.20;99.90;;;;;;5119175;28;20222;-75
2023/10/25 11:43:18;;;;;;;7.10;6.40;;;12.10;99.90;;;;;;5113671;28;20199;-75
2023/10/25 11:45:46;;;;;;;7.10;6.50;;;12.20;99.90;;;;;;5113540;28;20577;-76
2023/10/25 11:48:14;;;;;;;7.20;6.40;;;12.30;99.90;;;;;;5113428;28;20260;-75
2023/10/25 11:50:46;;;;;;;6.57;5.87;;;12.30;99.90;;;;;;5113619;28;20195;-75
2023/10/25 11:53:15;;;;;;;8.60;6.17;;;12.20;99.90;;;;;;5113609;28;20191;-75
2023/10/25 11:55:42;;;;;;;7.20;6.50;;;12.10;99.90;;;;;;5113505;28;20195;-75
2023/10/25 11:58:15;;;;;;;7.70;7.00;;;12.20;99.90;;;;;;5112489;28;20204;-74
2023/10/25 12:00:41;;;;;;;7.50;6.80;;;12.20;99.90;;;;;;5113284;28;20474;-75
2023/10/25 12:03:08;;;;;;;7.63;6.87;;;12.30;99.90;;;;;;5112982;28;20611;-75
2023/10/25 12:05:35;;;;;;;7.87;7.07;;;12.30;99.90;;;;;;5113211;28;20563;-74
2023/10/25 12:08:04;;;;;;;7.77;7.07;;;12.40;99.90;;;;;;5113293;28;20278;-74
2023/10/25 12:10:31;;;;;;;8.63;6.57;;;12.40;99.90;;;;;;5113209;28;20286;-74
2023/10/25 12:12:57;;;;;;;7.77;7.07;;;12.40;99.90;;;;;;5112960;28;20253;-75
2023/10/25 12:15:24;;;;;;;7.40;6.70;;;12.30;99.90;;;;;;5112876;28;20593;-74
2023/10/25 12:17:51;;;;;;;9.63;7.37;;;12.30;99.90;;;;;;5112852;28;20199;-75
2023/10/25 12:20:17;;;;;;;7.40;6.70;;;12.20;99.90;;;;;;5113023;28;20273;-75
2023/10/25 12:22:44;;;;;;;7.33;6.13;;;12.20;99.90;;;;;;5112996;28;20196;-75
2023/10/25 12:25:12;;;;;;;7.93;6.67;;;12.20;99.90;;;;;;5113019;28;20304;-74
2023/10/25 12:27:38;;;;;;;8.30;6.90;;;12.10;99.90;;;;;;5112880;28;20485;-74
2023/10/25 12:30:06;;;;;;;7.93;7.13;;;12.10;99.90;;;;;;5112798;28;20226;-74
2023/10/25 12:32:33;;;;;;;7.37;6.67;;;12.10;99.90;;;;;;5112834;28;20196;-74
2023/10/25 12:35:00;;;;;;;7.20;6.50;;;12.10;99.90;;;;;;5112799;28;20580;-74
2023/10/25 12:37:29;;;;;;;7.43;6.20;;;12.00;99.90;;;;;;5112736;28;20195;-74
2023/10/25 12:39:56;;;;;;;7.20;6.50;;;11.90;99.90;;;;;;5112184;28;20255;-74